sensor_id;sensor_type;location;lat;lon;timestamp;temperature;humidity
36444;DHT22;24692;45.642;13.806;2023-08-24T00:01:17;29.00;99.90
36444;DHT22;24692;45.642;13.806;2023-08-24T00:03:45;29.10;99.90
36444;DHT22;24692;45.642;13.806;2023-08-24T00:06:12;29.10;99.90
36444;DHT22;24692;45.642;13.806;2023-08-24T00:08:38;29.10;99.90
36444;DHT22;24692;45.642;13.806;2023-08-24T00:11:03;29.10;99.90
36444;DHT22;24692;45.642;13.806;2023-08-24T00:13:30;29.00;99.90
36444;DHT22;24692;45.642;13.806;2023-08-24T00:15:56;29.00;99.90
36444;DHT22;24692;45.642;13.806;2023-08-24T00:18:22;28.90;99.90
36444;DHT22;24692;45.642;13.806;2023-08-24T00:20:50;28.90;99.90
36444;DHT22;24692;45.642;13.806;2023-08-24T00:23:16;28.90;99.90
36444;DHT22;24692;45.642;13.806;2023-08-24T00:25:42;28.90;99.90
36444;DHT22;24692;45.642;13.806;2023-08-24T00:28:07;28.90;99.90
36444;DHT22;24692;45.642;13.806;2023-08-24T00:30:33;29.00;99.90
36444;DHT22;24692;45.642;13.806;2023-08-24T00:32:59;29.00;99.90
36444;DHT22;24692;45.642;13.806;2023-08-24T00:35:25;29.00;99.90
36444;DHT22;24692;45.642;13.806;2023-08-24T00:37:51;29.00;99.90
36444;DHT22;24692;45.642;13.806;2023-08-24T00:40:17;29.00;99.90
36444;DHT22;24692;45.642;13.806;2023-08-24T00:42:44;29.00;99.90
36444;DHT22;24692;45.642;13.806;2023-08-24T00:45:12;28.90;99.90
36444;DHT22;24692;45.642;13.806;2023-08-24T00:47:43;28.90;99.90
36444;DHT22;24692;45.642;13.806;2023-08-24T00:50:10;28.80;99.90
36444;DHT22;24692;45.642;13.806;2023-08-24T00:52:40;28.80;99.90
36444;DHT22;24692;45.642;13.806;2023-08-24T00:55:07;28.70;99.90
36444;DHT22;24692;45.642;13.806;2023-08-24T00:57:33;28.70;99.90
36444;DHT22;24692;45.642;13.806;2023-08-24T01:00:04;28.70;99.90
36444;DHT22;24692;45.642;13.806;2023-08-24T01:02:36;28.70;99.90
36444;DHT22;24692;45.642;13.806;2023-08-24T01:05:02;28.70;99.90
36444;DHT22;24692;45.642;13.806;2023-08-24T01:07:30;28.70;99.90
36444;DHT22;24692;45.642;13.806;2023-08-24T01:09:56;28.60;99.90
36444;DHT22;24692;45.642;13.806;2023-08-24T01:15:14;28.60;99.90
36444;DHT22;24692;45.642;13.806;2023-08-24T01:17:43;28.60;99.90
36444;DHT22;24692;45.642;13.806;2023-08-24T01:20:10;28.50;99.90
36444;DHT22;24692;45.642;13.806;2023-08-24T01:25:40;28.50;99.90
36444;DHT22;24692;45.642;13.806;2023-08-24T01:28:09;28.40;99.90
36444;DHT22;24692;45.642;13.806;2023-08-24T01:30:34;28.50;99.90
36444;DHT22;24692;45.642;13.806;2023-08-24T01:33:03;28.50;99.90
36444;DHT22;24692;45.642;13.806;2023-08-24T01:35:30;28.40;99.90
36444;DHT22;24692;45.642;13.806;2023-08-24T01:37:56;28.30;99.90
36444;DHT22;24692;45.642;13.806;2023-08-24T01:40:29;28.30;99.90
36444;DHT22;24692;45.642;13.806;2023-08-24T01:43:03;28.30;99.90
36444;DHT22;24692;45.642;13.806;2023-08-24T01:45:31;28.30;99.90
36444;DHT22;24692;45.642;13.806;2023-08-24T01:47:57;28.40;99.90
36444;DHT22;24692;45.642;13.806;2023-08-24T01:50:24;28.30;99.90
36444;DHT22;24692;45.642;13.806;2023-08-24T01:52:50;28.40;99.90
36444;DHT22;24692;45.642;13.806;2023-08-24T01:55:19;28.30;99.90
36444;DHT22;24692;45.642;13.806;2023-08-24T01:57:46;28.30;99.90
36444;DHT22;24692;45.642;13.806;2023-08-24T02:00:12;28.30;99.90
36444;DHT22;24692;45.642;13.806;2023-08-24T02:02:38;28.30;99.90
36444;DHT22;24692;45.642;13.806;2023-08-24T02:05:05;28.30;99.90
36444;DHT22;24692;45.642;13.806;2023-08-24T02:07:31;28.40;99.90
36444;DHT22;24692;45.642;13.806;2023-08-24T02:09:56;28.30;99.90
36444;DHT22;24692;45.642;13.806;2023-08-24T02:12:22;28.40;99.90
36444;DHT22;24692;45.642;13.806;2023-08-24T02:14:48;28.40;99.90
36444;DHT22;24692;45.642;13.806;2023-08-24T02:17:13;28.40;99.90
36444;DHT22;24692;45.642;13.806;2023-08-24T02:19:40;28.40;99.90
36444;DHT22;24692;45.642;13.806;2023-08-24T02:22:07;28.40;99.90
36444;DHT22;24692;45.642;13.806;2023-08-24T02:24:33;28.40;99.90
36444;DHT22;24692;45.642;13.806;2023-08-24T02:26:59;28.40;99.90
36444;DHT22;24692;45.642;13.806;2023-08-24T02:29:24;28.30;99.90
36444;DHT22;24692;45.642;13.806;2023-08-24T02:31:50;28.30;99.90
36444;DHT22;24692;45.642;13.806;2023-08-24T02:34:16;28.30;99.90
36444;DHT22;24692;45.642;13.806;2023-08-24T02:36:42;28.30;99.90
36444;DHT22;24692;45.642;13.806;2023-08-24T02:39:07;28.30;99.90
36444;DHT22;24692;45.642;13.806;2023-08-24T02:41:34;28.20;99.90
36444;DHT22;24692;45.642;13.806;2023-08-24T02:44:00;28.20;99.90
36444;DHT22;24692;45.642;13.806;2023-08-24T02:46:26;28.20;99.90
36444;DHT22;24692;45.642;13.806;2023-08-24T02:48:52;28.20;99.90
36444;DHT22;24692;45.642;13.806;2023-08-24T02:51:21;28.20;99.90
36444;DHT22;24692;45.642;13.806;2023-08-24T02:53:47;28.10;99.90
36444;DHT22;24692;45.642;13.806;2023-08-24T02:56:13;28.20;99.90
36444;DHT22;24692;45.642;13.806;2023-08-24T02:58:38;28.20;99.90
36444;DHT22;24692;45.642;13.806;2023-08-24T03:01:08;28.20;99.90
36444;DHT22;24692;45.642;13.806;2023-08-24T03:03:34;28.20;99.90
36444;DHT22;24692;45.642;13.806;2023-08-24T03:06:05;28.20;99.90
36444;DHT22;24692;45.642;13.806;2023-08-24T03:08:32;28.20;99.90
36444;DHT22;24692;45.642;13.806;2023-08-24T03:11:01;28.20;99.90
36444;DHT22;24692;45.642;13.806;2023-08-24T03:13:28;28.10;99.90
36444;DHT22;24692;45.642;13.806;2023-08-24T03:15:54;28.00;99.90
36444;DHT22;24692;45.642;13.806;2023-08-24T03:18:20;28.00;99.90
36444;DHT22;24692;45.642;13.806;2023-08-24T03:20:47;28.00;99.90
36444;DHT22;24692;45.642;13.806;2023-08-24T03:23:13;27.90;99.90
36444;DHT22;24692;45.642;13.806;2023-08-24T03:25:40;27.90;99.90
36444;DHT22;24692;45.642;13.806;2023-08-24T03:28:07;27.90;99.90
36444;DHT22;24692;45.642;13.806;2023-08-24T03:30:37;27.80;99.90
36444;DHT22;24692;45.642;13.806;2023-08-24T03:33:04;27.80;99.90
36444;DHT22;24692;45.642;13.806;2023-08-24T03:35:33;27.90;99.90
36444;DHT22;24692;45.642;13.806;2023-08-24T03:37:59;27.90;99.90
36444;DHT22;24692;45.642;13.806;2023-08-24T03:40:25;27.80;99.90
36444;DHT22;24692;45.642;13.806;2023-08-24T03:42:51;27.90;99.90
36444;DHT22;24692;45.642;13.806;2023-08-24T03:45:16;27.90;99.90
36444;DHT22;24692;45.642;13.806;2023-08-24T03:47:42;27.90;99.90
36444;DHT22;24692;45.642;13.806;2023-08-24T03:50:08;28.00;99.90
36444;DHT22;24692;45.642;13.806;2023-08-24T03:52:34;28.00;99.90
36444;DHT22;24692;45.642;13.806;2023-08-24T03:54:59;28.00;99.90
36444;DHT22;24692;45.642;13.806;2023-08-24T03:57:25;27.90;99.90
36444;DHT22;24692;45.642;13.806;2023-08-24T03:59:50;27.90;99.90
36444;DHT22;24692;45.642;13.806;2023-08-24T04:02:16;27.90;99.90
36444;DHT22;24692;45.642;13.806;2023-08-24T04:04:42;27.90;99.90
36444;DHT22;24692;45.642;13.806;2023-08-24T04:07:07;27.80;99.90
36444;DHT22;24692;45.642;13.806;2023-08-24T04:09:33;27.80;99.90
36444;DHT22;24692;45.642;13.806;2023-08-24T04:11:59;27.80;99.90
36444;DHT22;24692;45.642;13.806;2023-08-24T04:14:24;27.80;99.90
36444;DHT22;24692;45.642;13.806;2023-08-24T04:16:50;27.80;99.90
36444;DHT22;24692;45.642;13.806;2023-08-24T04:19:16;27.80;99.90
36444;DHT22;24692;45.642;13.806;2023-08-24T04:21:41;27.70;99.90
36444;DHT22;24692;45.642;13.806;2023-08-24T04:24:07;27.70;99.90
36444;DHT22;24692;45.642;13.806;2023-08-24T04:26:33;27.70;99.90
36444;DHT22;24692;45.642;13.806;2023-08-24T04:28:59;27.70;99.90
36444;DHT22;24692;45.642;13.806;2023-08-24T04:31:24;27.60;99.90
36444;DHT22;24692;45.642;13.806;2023-08-24T04:33:50;27.60;99.90
36444;DHT22;24692;45.642;13.806;2023-08-24T04:36:16;27.60;99.90
36444;DHT22;24692;45.642;13.806;2023-08-24T04:38:41;27.60;99.90
36444;DHT22;24692;45.642;13.806;2023-08-24T04:41:08;27.60;99.90
36444;DHT22;24692;45.642;13.806;2023-08-24T04:43:34;27.60;99.90
36444;DHT22;24692;45.642;13.806;2023-08-24T04:46:02;27.60;99.90
36444;DHT22;24692;45.642;13.806;2023-08-24T04:48:28;27.60;99.90
36444;DHT22;24692;45.642;13.806;2023-08-24T04:51:01;27.70;99.90
36444;DHT22;24692;45.642;13.806;2023-08-24T04:53:27;27.80;99.90
36444;DHT22;24692;45.642;13.806;2023-08-24T04:55:53;27.70;99.90
36444;DHT22;24692;45.642;13.806;2023-08-24T04:58:19;27.70;99.90
36444;DHT22;24692;45.642;13.806;2023-08-24T05:00:45;27.60;99.90
36444;DHT22;24692;45.642;13.806;2023-08-24T05:03:11;27.60;99.90
36444;DHT22;24692;45.642;13.806;2023-08-24T05:05:37;27.50;99.90
36444;DHT22;24692;45.642;13.806;2023-08-24T05:08:04;27.60;99.90
36444;DHT22;24692;45.642;13.806;2023-08-24T05:10:37;27.70;99.90
36444;DHT22;24692;45.642;13.806;2023-08-24T05:13:03;27.70;99.90
36444;DHT22;24692;45.642;13.806;2023-08-24T05:15:29;27.70;99.90
36444;DHT22;24692;45.642;13.806;2023-08-24T05:17:55;27.70;99.90
36444;DHT22;24692;45.642;13.806;2023-08-24T05:20:28;27.70;99.90
36444;DHT22;24692;45.642;13.806;2023-08-24T05:22:54;27.70;99.90
36444;DHT22;24692;45.642;13.806;2023-08-24T05:25:23;27.70;99.90
36444;DHT22;24692;45.642;13.806;2023-08-24T05:27:49;27.70;99.90
36444;DHT22;24692;45.642;13.806;2023-08-24T05:30:15;27.70;99.90
36444;DHT22;24692;45.642;13.806;2023-08-24T05:32:40;27.80;99.90
36444;DHT22;24692;45.642;13.806;2023-08-24T05:35:07;27.90;99.90
36444;DHT22;24692;45.642;13.806;2023-08-24T05:37:34;27.90;99.90
36444;DHT22;24692;45.642;13.806;2023-08-24T05:40:00;28.10;99.90
36444;DHT22;24692;45.642;13.806;2023-08-24T05:42:27;28.20;99.90
36444;DHT22;24692;45.642;13.806;2023-08-24T05:44:53;28.30;99.90
36444;DHT22;24692;45.642;13.806;2023-08-24T05:47:18;28.30;99.90
36444;DHT22;24692;45.642;13.806;2023-08-24T05:49:44;28.30;99.90
36444;DHT22;24692;45.642;13.806;2023-08-24T05:52:10;28.30;99.90
36444;DHT22;24692;45.642;13.806;2023-08-24T05:54:37;28.30;99.90
36444;DHT22;24692;45.642;13.806;2023-08-24T05:57:03;28.30;99.90
36444;DHT22;24692;45.642;13.806;2023-08-24T05:59:30;28.40;99.90
36444;DHT22;24692;45.642;13.806;2023-08-24T06:01:56;28.40;99.90
36444;DHT22;24692;45.642;13.806;2023-08-24T06:04:21;28.40;99.90
36444;DHT22;24692;45.642;13.806;2023-08-24T06:06:47;28.50;99.90
36444;DHT22;24692;45.642;13.806;2023-08-24T06:09:13;28.60;99.90
36444;DHT22;24692;45.642;13.806;2023-08-24T06:11:40;28.80;99.90
36444;DHT22;24692;45.642;13.806;2023-08-24T06:14:06;28.80;99.90
36444;DHT22;24692;45.642;13.806;2023-08-24T06:16:32;28.90;99.90
36444;DHT22;24692;45.642;13.806;2023-08-24T06:18:57;29.00;99.90
36444;DHT22;24692;45.642;13.806;2023-08-24T06:21:23;29.00;99.90
36444;DHT22;24692;45.642;13.806;2023-08-24T06:23:49;29.20;99.90
36444;DHT22;24692;45.642;13.806;2023-08-24T06:26:14;29.20;99.90
36444;DHT22;24692;45.642;13.806;2023-08-24T06:28:40;29.30;99.90
36444;DHT22;24692;45.642;13.806;2023-08-24T06:31:06;29.40;99.90
36444;DHT22;24692;45.642;13.806;2023-08-24T06:33:34;29.50;99.90
36444;DHT22;24692;45.642;13.806;2023-08-24T06:36:02;29.60;99.90
36444;DHT22;24692;45.642;13.806;2023-08-24T06:38:28;29.70;99.90
36444;DHT22;24692;45.642;13.806;2023-08-24T06:40:54;29.90;99.90
36444;DHT22;24692;45.642;13.806;2023-08-24T06:43:20;30.10;99.90
36444;DHT22;24692;45.642;13.806;2023-08-24T06:45:45;30.20;99.90
36444;DHT22;24692;45.642;13.806;2023-08-24T06:48:11;30.30;99.90
36444;DHT22;24692;45.642;13.806;2023-08-24T06:50:37;30.30;99.90
36444;DHT22;24692;45.642;13.806;2023-08-24T06:53:03;30.40;99.90
36444;DHT22;24692;45.642;13.806;2023-08-24T06:55:29;30.40;99.90
36444;DHT22;24692;45.642;13.806;2023-08-24T06:57:55;30.40;99.90
36444;DHT22;24692;45.642;13.806;2023-08-24T07:00:21;30.60;99.90
36444;DHT22;24692;45.642;13.806;2023-08-24T07:02:47;30.60;99.90
36444;DHT22;24692;45.642;13.806;2023-08-24T07:05:13;30.70;99.90
36444;DHT22;24692;45.642;13.806;2023-08-24T07:07:40;30.80;99.90
36444;DHT22;24692;45.642;13.806;2023-08-24T07:10:09;30.90;99.90
36444;DHT22;24692;45.642;13.806;2023-08-24T07:12:35;30.90;99.90
36444;DHT22;24692;45.642;13.806;2023-08-24T07:17:27;31.20;99.90
36444;DHT22;24692;45.642;13.806;2023-08-24T07:24:45;31.50;99.90
36444;DHT22;24692;45.642;13.806;2023-08-24T07:27:11;32.10;99.90
36444;DHT22;24692;45.642;13.806;2023-08-24T07:29:37;32.30;99.90
36444;DHT22;24692;45.642;13.806;2023-08-24T07:32:03;32.40;99.90
36444;DHT22;24692;45.642;13.806;2023-08-24T07:34:29;32.60;99.90
36444;DHT22;24692;45.642;13.806;2023-08-24T07:36:54;32.70;99.90
36444;DHT22;24692;45.642;13.806;2023-08-24T07:39:20;32.80;99.90
36444;DHT22;24692;45.642;13.806;2023-08-24T07:41:46;32.90;99.90
36444;DHT22;24692;45.642;13.806;2023-08-24T07:44:12;32.90;99.90
36444;DHT22;24692;45.642;13.806;2023-08-24T07:46:39;33.10;99.90
36444;DHT22;24692;45.642;13.806;2023-08-24T07:49:05;33.20;99.90
36444;DHT22;24692;45.642;13.806;2023-08-24T07:51:33;33.30;99.90
36444;DHT22;24692;45.642;13.806;2023-08-24T07:53:59;33.30;99.90
36444;DHT22;24692;45.642;13.806;2023-08-24T07:56:25;33.40;99.90
36444;DHT22;24692;45.642;13.806;2023-08-24T07:58:50;33.50;99.90
36444;DHT22;24692;45.642;13.806;2023-08-24T08:01:16;33.50;99.90
36444;DHT22;24692;45.642;13.806;2023-08-24T08:03:41;33.70;99.90
36444;DHT22;24692;45.642;13.806;2023-08-24T08:06:07;33.90;99.90
36444;DHT22;24692;45.642;13.806;2023-08-24T08:08:33;34.00;99.90
36444;DHT22;24692;45.642;13.806;2023-08-24T08:11:00;34.20;99.90
36444;DHT22;24692;45.642;13.806;2023-08-24T08:13:26;34.40;99.90
36444;DHT22;24692;45.642;13.806;2023-08-24T08:15:53;34.60;99.90
36444;DHT22;24692;45.642;13.806;2023-08-24T08:18:19;34.80;99.90
36444;DHT22;24692;45.642;13.806;2023-08-24T08:20:44;34.90;99.90
36444;DHT22;24692;45.642;13.806;2023-08-24T08:23:10;35.00;99.90
36444;DHT22;24692;45.642;13.806;2023-08-24T08:25:36;35.20;99.90
36444;DHT22;24692;45.642;13.806;2023-08-24T08:28:01;35.10;99.90
36444;DHT22;24692;45.642;13.806;2023-08-24T08:30:27;35.10;99.90
36444;DHT22;24692;45.642;13.806;2023-08-24T08:32:52;35.70;99.90
36444;DHT22;24692;45.642;13.806;2023-08-24T08:35:21;36.70;99.90
36444;DHT22;24692;45.642;13.806;2023-08-24T08:37:47;38.00;99.90
36444;DHT22;24692;45.642;13.806;2023-08-24T08:40:17;39.50;99.90
36444;DHT22;24692;45.642;13.806;2023-08-24T08:42:43;40.50;99.90
36444;DHT22;24692;45.642;13.806;2023-08-24T08:45:10;41.60;99.90
36444;DHT22;24692;45.642;13.806;2023-08-24T08:47:36;41.50;99.90
36444;DHT22;24692;45.642;13.806;2023-08-24T08:50:03;41.80;99.90
36444;DHT22;24692;45.642;13.806;2023-08-24T08:52:29;42.20;99.90
36444;DHT22;24692;45.642;13.806;2023-08-24T08:54:55;42.70;99.90
36444;DHT22;24692;45.642;13.806;2023-08-24T08:57:25;42.90;99.90
36444;DHT22;24692;45.642;13.806;2023-08-24T08:59:52;43.00;99.90
36444;DHT22;24692;45.642;13.806;2023-08-24T09:02:20;43.20;99.90
36444;DHT22;24692;45.642;13.806;2023-08-24T09:04:46;42.20;99.90
36444;DHT22;24692;45.642;13.806;2023-08-24T09:07:16;40.80;99.90
36444;DHT22;24692;45.642;13.806;2023-08-24T09:09:42;39.70;99.90
36444;DHT22;24692;45.642;13.806;2023-08-24T09:12:09;39.50;99.90
36444;DHT22;24692;45.642;13.806;2023-08-24T09:14:35;39.70;99.90
36444;DHT22;24692;45.642;13.806;2023-08-24T09:17:00;39.80;99.90
36444;DHT22;24692;45.642;13.806;2023-08-24T09:19:30;39.70;99.90
36444;DHT22;24692;45.642;13.806;2023-08-24T09:21:57;39.60;99.90
36444;DHT22;24692;45.642;13.806;2023-08-24T09:24:33;39.90;99.90
36444;DHT22;24692;45.642;13.806;2023-08-24T09:27:20;39.90;99.90
36444;DHT22;24692;45.642;13.806;2023-08-24T09:29:53;40.00;99.90
36444;DHT22;24692;45.642;13.806;2023-08-24T09:32:28;40.20;99.90
36444;DHT22;24692;45.642;13.806;2023-08-24T09:34:55;39.50;99.90
36444;DHT22;24692;45.642;13.806;2023-08-24T09:37:21;39.60;99.90
36444;DHT22;24692;45.642;13.806;2023-08-24T09:39:47;39.60;99.90
36444;DHT22;24692;45.642;13.806;2023-08-24T09:42:13;39.90;99.90
36444;DHT22;24692;45.642;13.806;2023-08-24T09:44:46;40.90;99.90
36444;DHT22;24692;45.642;13.806;2023-08-24T09:47:12;40.80;99.90
36444;DHT22;24692;45.642;13.806;2023-08-24T09:49:38;41.00;99.90
36444;DHT22;24692;45.642;13.806;2023-08-24T09:52:07;40.60;99.90
36444;DHT22;24692;45.642;13.806;2023-08-24T09:54:36;40.50;99.90
36444;DHT22;24692;45.642;13.806;2023-08-24T09:57:02;40.20;99.90
36444;DHT22;24692;45.642;13.806;2023-08-24T09:59:31;40.10;99.90
36444;DHT22;24692;45.642;13.806;2023-08-24T10:01:56;40.30;99.90
36444;DHT22;24692;45.642;13.806;2023-08-24T10:04:24;40.30;99.90
36444;DHT22;24692;45.642;13.806;2023-08-24T10:06:52;39.70;99.90
36444;DHT22;24692;45.642;13.806;2023-08-24T10:12:27;39.30;99.90
36444;DHT22;24692;45.642;13.806;2023-08-24T10:14:59;39.20;99.90
36444;DHT22;24692;45.642;13.806;2023-08-24T10:17:27;38.80;99.90
36444;DHT22;24692;45.642;13.806;2023-08-24T10:19:54;39.00;99.90
36444;DHT22;24692;45.642;13.806;2023-08-24T10:22:21;38.40;99.90
36444;DHT22;24692;45.642;13.806;2023-08-24T10:24:48;39.20;99.90
36444;DHT22;24692;45.642;13.806;2023-08-24T10:27:14;39.40;99.90
36444;DHT22;24692;45.642;13.806;2023-08-24T10:29:40;39.10;99.90
36444;DHT22;24692;45.642;13.806;2023-08-24T10:32:07;38.80;99.90
36444;DHT22;24692;45.642;13.806;2023-08-24T10:34:33;39.10;99.90
36444;DHT22;24692;45.642;13.806;2023-08-24T10:37:09;39.70;99.90
36444;DHT22;24692;45.642;13.806;2023-08-24T10:39:36;39.00;99.90
36444;DHT22;24692;45.642;13.806;2023-08-24T10:42:04;39.50;99.90
36444;DHT22;24692;45.642;13.806;2023-08-24T10:44:37;39.80;99.90
36444;DHT22;24692;45.642;13.806;2023-08-24T10:47:22;39.70;99.90
36444;DHT22;24692;45.642;13.806;2023-08-24T10:52:30;39.70;99.90
36444;DHT22;24692;45.642;13.806;2023-08-24T10:54:56;39.80;99.90
36444;DHT22;24692;45.642;13.806;2023-08-24T10:57:25;40.20;99.90
36444;DHT22;24692;45.642;13.806;2023-08-24T11:00:04;40.60;99.90
36444;DHT22;24692;45.642;13.806;2023-08-24T11:02:50;41.10;99.90
36444;DHT22;24692;45.642;13.806;2023-08-24T11:07:59;40.80;99.90
36444;DHT22;24692;45.642;13.806;2023-08-24T11:10:35;39.80;99.90
36444;DHT22;24692;45.642;13.806;2023-08-24T11:13:17;40.50;99.90
36444;DHT22;24692;45.642;13.806;2023-08-24T11:15:46;40.10;99.90
36444;DHT22;24692;45.642;13.806;2023-08-24T11:20:45;40.50;99.90
36444;DHT22;24692;45.642;13.806;2023-08-24T11:23:12;39.90;99.90
36444;DHT22;24692;45.642;13.806;2023-08-24T11:25:38;39.80;99.90
36444;DHT22;24692;45.642;13.806;2023-08-24T11:28:04;40.30;99.90
36444;DHT22;24692;45.642;13.806;2023-08-24T11:30:34;40.20;99.90
36444;DHT22;24692;45.642;13.806;2023-08-24T11:33:01;40.20;99.90
36444;DHT22;24692;45.642;13.806;2023-08-24T11:35:27;40.00;99.90
36444;DHT22;24692;45.642;13.806;2023-08-24T11:37:57;39.40;99.90
36444;DHT22;24692;45.642;13.806;2023-08-24T11:40:23;39.70;99.90
36444;DHT22;24692;45.642;13.806;2023-08-24T11:42:56;40.50;99.90
36444;DHT22;24692;45.642;13.806;2023-08-24T11:45:22;40.30;99.90
36444;DHT22;24692;45.642;13.806;2023-08-24T11:47:49;40.20;99.90
36444;DHT22;24692;45.642;13.806;2023-08-24T11:50:16;40.50;99.90
36444;DHT22;24692;45.642;13.806;2023-08-24T11:52:42;40.10;99.90
36444;DHT22;24692;45.642;13.806;2023-08-24T11:55:09;39.60;99.90
36444;DHT22;24692;45.642;13.806;2023-08-24T11:57:36;39.30;99.90
36444;DHT22;24692;45.642;13.806;2023-08-24T12:00:05;39.20;99.90
36444;DHT22;24692;45.642;13.806;2023-08-24T12:02:32;39.60;99.90
36444;DHT22;24692;45.642;13.806;2023-08-24T12:04:58;39.40;99.90
36444;DHT22;24692;45.642;13.806;2023-08-24T12:07:24;39.30;99.90
36444;DHT22;24692;45.642;13.806;2023-08-24T12:09:52;39.50;99.90
36444;DHT22;24692;45.642;13.806;2023-08-24T12:12:20;39.80;99.90
36444;DHT22;24692;45.642;13.806;2023-08-24T12:14:47;40.10;99.90
36444;DHT22;24692;45.642;13.806;2023-08-24T12:17:14;40.50;99.90
36444;DHT22;24692;45.642;13.806;2023-08-24T12:19:56;40.20;99.90
36444;DHT22;24692;45.642;13.806;2023-08-24T12:22:22;40.40;99.90
36444;DHT22;24692;45.642;13.806;2023-08-24T12:24:48;39.90;99.90
36444;DHT22;24692;45.642;13.806;2023-08-24T12:27:26;39.70;99.90
36444;DHT22;24692;45.642;13.806;2023-08-24T12:29:52;38.70;99.90
36444;DHT22;24692;45.642;13.806;2023-08-24T12:32:19;39.30;99.90
36444;DHT22;24692;45.642;13.806;2023-08-24T12:34:49;39.60;99.90
36444;DHT22;24692;45.642;13.806;2023-08-24T12:37:17;40.10;99.90
36444;DHT22;24692;45.642;13.806;2023-08-24T12:39:43;40.30;99.90
36444;DHT22;24692;45.642;13.806;2023-08-24T12:42:09;40.50;99.90
36444;DHT22;24692;45.642;13.806;2023-08-24T12:44:34;41.20;99.90
36444;DHT22;24692;45.642;13.806;2023-08-24T12:47:02;40.30;99.90
36444;DHT22;24692;45.642;13.806;2023-08-24T12:49:28;40.30;99.90
36444;DHT22;24692;45.642;13.806;2023-08-24T12:51:54;39.90;99.90
36444;DHT22;24692;45.642;13.806;2023-08-24T12:54:20;39.60;99.90
36444;DHT22;24692;45.642;13.806;2023-08-24T12:56:45;40.00;99.90
36444;DHT22;24692;45.642;13.806;2023-08-24T12:59:11;40.10;99.90
36444;DHT22;24692;45.642;13.806;2023-08-24T13:01:40;40.70;99.60
36444;DHT22;24692;45.642;13.806;2023-08-24T13:04:05;40.70;99.40
36444;DHT22;24692;45.642;13.806;2023-08-24T13:06:32;41.10;99.10
36444;DHT22;24692;45.642;13.806;2023-08-24T13:08:58;40.70;99.10
36444;DHT22;24692;45.642;13.806;2023-08-24T13:11:24;39.80;99.00
36444;DHT22;24692;45.642;13.806;2023-08-24T13:13:49;39.00;99.70
36444;DHT22;24692;45.642;13.806;2023-08-24T13:16:15;39.30;99.30
36444;DHT22;24692;45.642;13.806;2023-08-24T13:18:42;39.60;99.50
36444;DHT22;24692;45.642;13.806;2023-08-24T13:21:07;40.10;99.40
36444;DHT22;24692;45.642;13.806;2023-08-24T13:23:33;40.90;99.10
36444;DHT22;24692;45.642;13.806;2023-08-24T13:25:59;40.70;98.30
36444;DHT22;24692;45.642;13.806;2023-08-24T13:28:25;41.40;97.60
36444;DHT22;24692;45.642;13.806;2023-08-24T13:30:51;41.50;97.80
36444;DHT22;24692;45.642;13.806;2023-08-24T13:33:17;40.90;98.30
36444;DHT22;24692;45.642;13.806;2023-08-24T13:35:45;40.40;99.10
36444;DHT22;24692;45.642;13.806;2023-08-24T13:38:10;41.30;99.40
36444;DHT22;24692;45.642;13.806;2023-08-24T13:40:36;41.10;98.60
36444;DHT22;24692;45.642;13.806;2023-08-24T13:43:02;40.30;98.60
36444;DHT22;24692;45.642;13.806;2023-08-24T13:45:27;40.30;99.90
36444;DHT22;24692;45.642;13.806;2023-08-24T13:47:56;39.90;99.60
36444;DHT22;24692;45.642;13.806;2023-08-24T13:50:22;40.40;99.80
36444;DHT22;24692;45.642;13.806;2023-08-24T13:52:48;40.40;99.10
36444;DHT22;24692;45.642;13.806;2023-08-24T13:55:14;39.70;98.80
36444;DHT22;24692;45.642;13.806;2023-08-24T13:57:40;39.70;99.30
36444;DHT22;24692;45.642;13.806;2023-08-24T14:00:06;39.40;99.90
36444;DHT22;24692;45.642;13.806;2023-08-24T14:02:34;40.20;99.10
36444;DHT22;24692;45.642;13.806;2023-08-24T14:04:59;40.80;98.80
36444;DHT22;24692;45.642;13.806;2023-08-24T14:07:25;40.30;98.90
36444;DHT22;24692;45.642;13.806;2023-08-24T14:09:51;40.10;98.80
36444;DHT22;24692;45.642;13.806;2023-08-24T14:12:17;39.10;99.40
36444;DHT22;24692;45.642;13.806;2023-08-24T14:14:43;39.20;99.90
36444;DHT22;24692;45.642;13.806;2023-08-24T14:17:08;39.30;99.90
36444;DHT22;24692;45.642;13.806;2023-08-24T14:19:34;38.80;99.90
36444;DHT22;24692;45.642;13.806;2023-08-24T14:22:00;38.90;99.90
36444;DHT22;24692;45.642;13.806;2023-08-24T14:24:25;39.30;99.90
36444;DHT22;24692;45.642;13.806;2023-08-24T14:26:51;39.00;99.90
36444;DHT22;24692;45.642;13.806;2023-08-24T14:29:17;38.90;99.90
36444;DHT22;24692;45.642;13.806;2023-08-24T14:31:42;38.90;99.90
36444;DHT22;24692;45.642;13.806;2023-08-24T14:34:08;39.20;99.90
36444;DHT22;24692;45.642;13.806;2023-08-24T14:36:33;39.20;99.90
36444;DHT22;24692;45.642;13.806;2023-08-24T14:38:59;38.50;99.90
36444;DHT22;24692;45.642;13.806;2023-08-24T14:41:25;38.60;99.90
36444;DHT22;24692;45.642;13.806;2023-08-24T14:43:50;38.80;99.90
36444;DHT22;24692;45.642;13.806;2023-08-24T14:46:16;38.60;99.90
36444;DHT22;24692;45.642;13.806;2023-08-24T14:48:42;38.90;99.90
36444;DHT22;24692;45.642;13.806;2023-08-24T14:51:08;38.90;99.90
36444;DHT22;24692;45.642;13.806;2023-08-24T14:53:33;39.50;99.90
36444;DHT22;24692;45.642;13.806;2023-08-24T14:55:59;39.90;99.90
36444;DHT22;24692;45.642;13.806;2023-08-24T14:58:26;39.20;99.90
36444;DHT22;24692;45.642;13.806;2023-08-24T15:00:57;38.60;99.90
36444;DHT22;24692;45.642;13.806;2023-08-24T15:03:23;38.50;99.90
36444;DHT22;24692;45.642;13.806;2023-08-24T15:08:22;38.70;99.90
36444;DHT22;24692;45.642;13.806;2023-08-24T15:10:49;39.00;99.90
36444;DHT22;24692;45.642;13.806;2023-08-24T15:13:14;38.90;99.90
36444;DHT22;24692;45.642;13.806;2023-08-24T15:15:40;38.90;99.90
36444;DHT22;24692;45.642;13.806;2023-08-24T15:18:06;39.30;99.90
36444;DHT22;24692;45.642;13.806;2023-08-24T15:20:31;38.60;99.90
36444;DHT22;24692;45.642;13.806;2023-08-24T15:22:59;38.90;99.90
36444;DHT22;24692;45.642;13.806;2023-08-24T15:25:25;39.10;99.90
36444;DHT22;24692;45.642;13.806;2023-08-24T15:27:51;38.50;99.90
36444;DHT22;24692;45.642;13.806;2023-08-24T15:30:17;38.50;99.90
36444;DHT22;24692;45.642;13.806;2023-08-24T15:32:42;38.50;99.90
36444;DHT22;24692;45.642;13.806;2023-08-24T15:35:08;38.60;99.90
36444;DHT22;24692;45.642;13.806;2023-08-24T15:37:34;38.60;99.90
36444;DHT22;24692;45.642;13.806;2023-08-24T15:40:00;38.60;99.90